D25

Manitowish Waters Airport

Manitowish Waters, Wisconsin, USA
METAR KD25 191635Z AUTO 00000KT 10SM SCT029 M15/M21 A3025 RMK AO2 T11541211
Observed Flight Rules
Jan-19 @ 16:35 UTC (7 minutes ago) Visual Flight Rules
Visibility Clouds
10 miles
  • Scattered at 2,900' AGL
Temperatures Readings
Current -15°C / 5°F
Dewpoint -21°C / -6°F
Humidity 60%
Altimeter 30.25" Hg
Pressure 1024.42 hPa
Elevation 491
METAR KD25 191635Z AUTO 00000KT 10SM SCT029 M15/M21 A3025 RMK AO2 T11541211
Observed Flight Rules
Jan-19 @ 16:35 UTC
(7 minutes ago)
VFR
Clouds
  • Scattered at 2,900' AGL
Temperature Dewpoint
-15°C / 5°F -21°C / -6°F
Humidity Altimeter Pressure
60% 30.25" Hg 1024.42 hPa